Kane, IL (62054)

12:29 PM CST on March 01, 2017 (GMT -0600)
North Jerseyville | | Change Station

Elev 558 ft 39.15 °N, 90.32 °W | Updated 12 seconds ago

Overcast
Overcast
45.7 °F
Feels Like 36 °F
N
29.3
Wind Variable Wind from NW
Gusts 34.9 mph

Today
High -- | Low -- °F
--% Chance of Precip.
Yesterday
High -- | Low -- °F
Precip. -- in
Pressure 29.92 in
Visibility 10.0 miles
Clouds Scattered Clouds 2900 ft
Mostly Cloudy 3800 ft
Overcast 4600 ft
Windchill 36 °F
Dew Point 35 °F
Humidity 67%
Rainfall 0.66 in
Snow Depth Not available.
6:33 AM 5:54 PM
Waxing Crescent, 12% visible
SPECI KSET 011802Z AUTO 30028G36KT 10SM SCT029 BKN038 OVC046 09/02 A2992 RMK AO2 PK WND 29036/1758 T00890017
Pressure 29.92 in
Visibility 10.0 miles
Clouds Scattered Clouds 2900 ft
Mostly Cloudy 3800 ft
Overcast 4600 ft
Windchill 36 °F
Dew Point 35 °F
Humidity 67%
Rainfall 0.66 in
Snow Depth Not available.
6:33 AM 5:54 PM
Waxing Crescent, 12% visible
SPECI KSET 011802Z AUTO 30028G36KT 10SM SCT029 BKN038 OVC046 09/02 A2992 RMK AO2 PK WND 29036/1758 T00890017

Get Your Daily Forecast Email!

Thanks for signing up!

Be on the lookout for a verification email in your inbox.

You'll start receiving the daily forecast at 8 AM.

×

10-Day Weather Forecast

Almanac

Astronomy

Mar. 01, 2017 Rise Set
Actual Time
Civil Twilight
Nautical Twilight
Astronomical Twilight
Moon
Length of Visible Light
Length of Day
Tomorrow will be .
, % of the Moon is Illuminated

Today's Extremes

State Highs State Lows

Community

WunderPhotos

Upload Photos

1,962,540 photos uploaded!

WunderBlog® & News

Nearby

Air Quality

  Air Quality AQ Index Pollutant
Not available.

Snow Depth

Station Depth Elevation

Earthquake Activity

City Distance Mag. Time & Date
Minimum magnitude displayed is 2.5.

Coastal Water Temperatures

Place Temperature

Stations

Nearby Weather Stations

Station Location Temp. Windchill Dew Point Humidity Wind Precip. Elev Updated Type
                   

Watches & Warnings

There are currently no watches in effect.